sensor_id;sensor_type;location;lat;lon;timestamp;temperature;humidity
18880;DHT22;9572;52.378;13.404;2022-07-23T00:01:50;17.10;99.90
18880;DHT22;9572;52.378;13.404;2022-07-23T00:04:17;17.10;99.90
18880;DHT22;9572;52.378;13.404;2022-07-23T00:06:44;17.10;99.90
18880;DHT22;9572;52.378;13.404;2022-07-23T00:09:10;17.10;99.90
18880;DHT22;9572;52.378;13.404;2022-07-23T00:11:38;17.00;99.90
18880;DHT22;9572;52.378;13.404;2022-07-23T00:14:05;17.00;99.90
18880;DHT22;9572;52.378;13.404;2022-07-23T00:16:33;17.00;99.90
18880;DHT22;9572;52.378;13.404;2022-07-23T00:19:00;16.90;99.90
18880;DHT22;9572;52.378;13.404;2022-07-23T00:21:28;16.90;99.90
18880;DHT22;9572;52.378;13.404;2022-07-23T00:23:55;17.00;99.90
18880;DHT22;9572;52.378;13.404;2022-07-23T00:26:22;16.90;99.90
18880;DHT22;9572;52.378;13.404;2022-07-23T00:28:49;16.90;99.90
18880;DHT22;9572;52.378;13.404;2022-07-23T00:31:16;16.90;99.90
18880;DHT22;9572;52.378;13.404;2022-07-23T00:33:44;16.90;99.90
18880;DHT22;9572;52.378;13.404;2022-07-23T00:36:11;16.90;99.90
18880;DHT22;9572;52.378;13.404;2022-07-23T00:38:38;16.90;99.90
18880;DHT22;9572;52.378;13.404;2022-07-23T00:41:05;16.80;99.90
18880;DHT22;9572;52.378;13.404;2022-07-23T00:43:32;16.80;99.90
18880;DHT22;9572;52.378;13.404;2022-07-23T00:45:59;16.80;99.90
18880;DHT22;9572;52.378;13.404;2022-07-23T00:48:26;16.80;99.90
18880;DHT22;9572;52.378;13.404;2022-07-23T00:50:54;16.80;99.90
18880;DHT22;9572;52.378;13.404;2022-07-23T00:53:21;16.70;99.90
18880;DHT22;9572;52.378;13.404;2022-07-23T00:55:48;16.70;99.90
18880;DHT22;9572;52.378;13.404;2022-07-23T00:58:16;16.70;99.90
18880;DHT22;9572;52.378;13.404;2022-07-23T01:00:43;16.70;99.90
18880;DHT22;9572;52.378;13.404;2022-07-23T01:03:10;16.70;99.90
18880;DHT22;9572;52.378;13.404;2022-07-23T01:05:48;16.60;99.90
18880;DHT22;9572;52.378;13.404;2022-07-23T01:08:16;16.70;99.90
18880;DHT22;9572;52.378;13.404;2022-07-23T01:10:43;16.70;99.90
18880;DHT22;9572;52.378;13.404;2022-07-23T01:13:10;16.70;99.90
18880;DHT22;9572;52.378;13.404;2022-07-23T01:15:38;16.80;99.90
18880;DHT22;9572;52.378;13.404;2022-07-23T01:18:06;16.80;99.90
18880;DHT22;9572;52.378;13.404;2022-07-23T01:20:33;16.80;99.90
18880;DHT22;9572;52.378;13.404;2022-07-23T01:23:02;16.70;99.90
18880;DHT22;9572;52.378;13.404;2022-07-23T01:25:29;16.80;99.90
18880;DHT22;9572;52.378;13.404;2022-07-23T01:27:56;16.80;99.90
18880;DHT22;9572;52.378;13.404;2022-07-23T01:30:23;16.80;99.90
18880;DHT22;9572;52.378;13.404;2022-07-23T01:32:50;16.70;99.90
18880;DHT22;9572;52.378;13.404;2022-07-23T01:35:17;16.70;99.90
18880;DHT22;9572;52.378;13.404;2022-07-23T01:37:44;16.70;99.90
18880;DHT22;9572;52.378;13.404;2022-07-23T01:40:13;16.80;99.90
18880;DHT22;9572;52.378;13.404;2022-07-23T01:42:39;16.70;99.90
18880;DHT22;9572;52.378;13.404;2022-07-23T01:45:07;16.70;99.90
18880;DHT22;9572;52.378;13.404;2022-07-23T01:47:34;16.70;99.90
18880;DHT22;9572;52.378;13.404;2022-07-23T01:50:01;16.70;99.90
18880;DHT22;9572;52.378;13.404;2022-07-23T01:52:28;16.70;99.90
18880;DHT22;9572;52.378;13.404;2022-07-23T01:54:55;16.70;99.90
18880;DHT22;9572;52.378;13.404;2022-07-23T01:57:24;16.70;99.90
18880;DHT22;9572;52.378;13.404;2022-07-23T01:59:50;16.70;99.90
18880;DHT22;9572;52.378;13.404;2022-07-23T02:02:17;16.70;99.90
18880;DHT22;9572;52.378;13.404;2022-07-23T02:04:44;16.60;99.90
18880;DHT22;9572;52.378;13.404;2022-07-23T02:07:11;16.70;99.90
18880;DHT22;9572;52.378;13.404;2022-07-23T02:09:38;16.70;99.90
18880;DHT22;9572;52.378;13.404;2022-07-23T02:12:05;16.80;99.90
18880;DHT22;9572;52.378;13.404;2022-07-23T02:14:33;16.80;99.90
18880;DHT22;9572;52.378;13.404;2022-07-23T02:17:00;16.80;99.90
18880;DHT22;9572;52.378;13.404;2022-07-23T02:19:27;16.80;99.90
18880;DHT22;9572;52.378;13.404;2022-07-23T02:21:54;16.80;99.90
18880;DHT22;9572;52.378;13.404;2022-07-23T02:24:21;16.80;99.90
18880;DHT22;9572;52.378;13.404;2022-07-23T02:26:48;16.90;99.90
18880;DHT22;9572;52.378;13.404;2022-07-23T02:29:15;16.90;99.90
18880;DHT22;9572;52.378;13.404;2022-07-23T02:31:43;16.90;99.90
18880;DHT22;9572;52.378;13.404;2022-07-23T02:34:11;16.90;99.90
18880;DHT22;9572;52.378;13.404;2022-07-23T02:36:38;16.90;99.90
18880;DHT22;9572;52.378;13.404;2022-07-23T02:39:05;16.90;99.90
18880;DHT22;9572;52.378;13.404;2022-07-23T02:41:32;17.00;99.90
18880;DHT22;9572;52.378;13.404;2022-07-23T02:43:59;17.00;99.90
18880;DHT22;9572;52.378;13.404;2022-07-23T02:46:26;17.00;99.90
18880;DHT22;9572;52.378;13.404;2022-07-23T02:48:54;16.90;99.90
18880;DHT22;9572;52.378;13.404;2022-07-23T02:51:21;16.80;99.90
18880;DHT22;9572;52.378;13.404;2022-07-23T02:53:48;16.80;99.90
18880;DHT22;9572;52.378;13.404;2022-07-23T02:56:14;16.80;99.90
18880;DHT22;9572;52.378;13.404;2022-07-23T02:58:41;16.80;99.90
18880;DHT22;9572;52.378;13.404;2022-07-23T03:01:08;16.80;99.90
18880;DHT22;9572;52.378;13.404;2022-07-23T03:03:35;16.80;99.90
18880;DHT22;9572;52.378;13.404;2022-07-23T03:06:04;16.80;99.90
18880;DHT22;9572;52.378;13.404;2022-07-23T03:08:31;16.70;99.90
18880;DHT22;9572;52.378;13.404;2022-07-23T03:10:58;16.80;99.90
18880;DHT22;9572;52.378;13.404;2022-07-23T03:13:25;16.80;99.90
18880;DHT22;9572;52.378;13.404;2022-07-23T03:15:52;16.70;99.90
18880;DHT22;9572;52.378;13.404;2022-07-23T03:18:19;16.70;99.90
18880;DHT22;9572;52.378;13.404;2022-07-23T03:20:45;16.70;99.90
18880;DHT22;9572;52.378;13.404;2022-07-23T03:23:14;16.70;99.90
18880;DHT22;9572;52.378;13.404;2022-07-23T03:25:42;16.70;99.90
18880;DHT22;9572;52.378;13.404;2022-07-23T03:28:09;16.70;99.90
18880;DHT22;9572;52.378;13.404;2022-07-23T03:30:36;16.70;99.90
18880;DHT22;9572;52.378;13.404;2022-07-23T03:33:03;16.70;99.90
18880;DHT22;9572;52.378;13.404;2022-07-23T03:35:30;16.60;99.90
18880;DHT22;9572;52.378;13.404;2022-07-23T03:37:56;16.70;99.90
18880;DHT22;9572;52.378;13.404;2022-07-23T03:40:25;16.70;99.90
18880;DHT22;9572;52.378;13.404;2022-07-23T03:42:52;16.70;99.90
18880;DHT22;9572;52.378;13.404;2022-07-23T03:45:19;16.70;99.90
18880;DHT22;9572;52.378;13.404;2022-07-23T03:47:45;16.80;99.90
18880;DHT22;9572;52.378;13.404;2022-07-23T03:50:13;16.80;99.90
18880;DHT22;9572;52.378;13.404;2022-07-23T03:52:39;16.80;99.90
18880;DHT22;9572;52.378;13.404;2022-07-23T03:55:07;16.90;99.90
18880;DHT22;9572;52.378;13.404;2022-07-23T03:57:35;16.90;99.90
18880;DHT22;9572;52.378;13.404;2022-07-23T04:00:03;16.90;99.90
18880;DHT22;9572;52.378;13.404;2022-07-23T04:02:30;16.80;99.90
18880;DHT22;9572;52.378;13.404;2022-07-23T04:04:57;16.80;99.90
18880;DHT22;9572;52.378;13.404;2022-07-23T04:07:25;16.80;99.90
18880;DHT22;9572;52.378;13.404;2022-07-23T04:09:52;16.90;99.90
18880;DHT22;9572;52.378;13.404;2022-07-23T04:12:20;16.90;99.90
18880;DHT22;9572;52.378;13.404;2022-07-23T04:14:49;16.90;99.90
18880;DHT22;9572;52.378;13.404;2022-07-23T04:17:16;16.90;99.90
18880;DHT22;9572;52.378;13.404;2022-07-23T04:19:42;17.00;99.90
18880;DHT22;9572;52.378;13.404;2022-07-23T04:22:10;17.00;99.90
18880;DHT22;9572;52.378;13.404;2022-07-23T04:24:37;17.10;99.90
18880;DHT22;9572;52.378;13.404;2022-07-23T04:27:04;17.00;99.90
18880;DHT22;9572;52.378;13.404;2022-07-23T04:29:31;17.00;99.90
18880;DHT22;9572;52.378;13.404;2022-07-23T04:32:00;17.00;99.90
18880;DHT22;9572;52.378;13.404;2022-07-23T04:34:27;16.90;99.90
18880;DHT22;9572;52.378;13.404;2022-07-23T04:36:54;17.00;99.90
18880;DHT22;9572;52.378;13.404;2022-07-23T04:39:21;17.00;99.90
18880;DHT22;9572;52.378;13.404;2022-07-23T04:41:47;16.90;99.90
18880;DHT22;9572;52.378;13.404;2022-07-23T04:44:14;17.00;99.90
18880;DHT22;9572;52.378;13.404;2022-07-23T04:46:41;16.80;99.90
18880;DHT22;9572;52.378;13.404;2022-07-23T04:49:10;16.60;99.90
18880;DHT22;9572;52.378;13.404;2022-07-23T04:51:36;16.60;99.90
18880;DHT22;9572;52.378;13.404;2022-07-23T04:54:03;16.50;99.90
18880;DHT22;9572;52.378;13.404;2022-07-23T04:56:30;16.30;99.90
18880;DHT22;9572;52.378;13.404;2022-07-23T04:58:57;16.20;99.90
18880;DHT22;9572;52.378;13.404;2022-07-23T05:01:26;16.00;99.90
18880;DHT22;9572;52.378;13.404;2022-07-23T05:03:53;16.00;99.90
18880;DHT22;9572;52.378;13.404;2022-07-23T05:06:21;16.00;99.90
18880;DHT22;9572;52.378;13.404;2022-07-23T05:08:48;16.00;99.90
18880;DHT22;9572;52.378;13.404;2022-07-23T05:11:15;16.10;99.90
18880;DHT22;9572;52.378;13.404;2022-07-23T05:13:42;16.10;99.90
18880;DHT22;9572;52.378;13.404;2022-07-23T05:16:09;16.10;99.90
18880;DHT22;9572;52.378;13.404;2022-07-23T05:18:36;16.10;99.90
18880;DHT22;9572;52.378;13.404;2022-07-23T05:21:03;16.00;99.90
18880;DHT22;9572;52.378;13.404;2022-07-23T05:23:31;16.10;99.90
18880;DHT22;9572;52.378;13.404;2022-07-23T05:25:58;16.00;99.90
18880;DHT22;9572;52.378;13.404;2022-07-23T05:28:25;16.00;99.90
18880;DHT22;9572;52.378;13.404;2022-07-23T05:30:55;15.90;99.90
18880;DHT22;9572;52.378;13.404;2022-07-23T05:33:25;15.90;99.90
18880;DHT22;9572;52.378;13.404;2022-07-23T05:35:52;15.90;99.90
18880;DHT22;9572;52.378;13.404;2022-07-23T05:38:19;15.90;99.90
18880;DHT22;9572;52.378;13.404;2022-07-23T05:40:48;15.90;99.90
18880;DHT22;9572;52.378;13.404;2022-07-23T05:43:15;15.90;99.90
18880;DHT22;9572;52.378;13.404;2022-07-23T05:45:43;15.90;99.90
18880;DHT22;9572;52.378;13.404;2022-07-23T05:48:10;16.00;99.90
18880;DHT22;9572;52.378;13.404;2022-07-23T05:50:37;16.00;99.90
18880;DHT22;9572;52.378;13.404;2022-07-23T05:53:04;16.00;99.90
18880;DHT22;9572;52.378;13.404;2022-07-23T05:55:31;16.00;99.90
18880;DHT22;9572;52.378;13.404;2022-07-23T05:58:00;16.00;99.90
18880;DHT22;9572;52.378;13.404;2022-07-23T06:00:28;16.00;99.90
18880;DHT22;9572;52.378;13.404;2022-07-23T06:02:56;15.90;99.90
18880;DHT22;9572;52.378;13.404;2022-07-23T06:05:23;15.90;99.90
18880;DHT22;9572;52.378;13.404;2022-07-23T06:07:50;15.90;99.90
18880;DHT22;9572;52.378;13.404;2022-07-23T06:10:18;15.80;99.90
18880;DHT22;9572;52.378;13.404;2022-07-23T06:12:45;15.60;99.90
18880;DHT22;9572;52.378;13.404;2022-07-23T06:15:14;15.70;99.90
18880;DHT22;9572;52.378;13.404;2022-07-23T06:17:41;15.70;99.90
18880;DHT22;9572;52.378;13.404;2022-07-23T06:20:09;15.70;99.90
18880;DHT22;9572;52.378;13.404;2022-07-23T06:22:37;15.80;99.90
18880;DHT22;9572;52.378;13.404;2022-07-23T06:25:05;15.70;99.90
18880;DHT22;9572;52.378;13.404;2022-07-23T06:27:32;15.50;99.90
18880;DHT22;9572;52.378;13.404;2022-07-23T06:29:59;15.40;99.90
18880;DHT22;9572;52.378;13.404;2022-07-23T06:32:28;15.50;99.90
18880;DHT22;9572;52.378;13.404;2022-07-23T06:34:55;15.60;99.90
18880;DHT22;9572;52.378;13.404;2022-07-23T06:37:22;15.60;99.90
18880;DHT22;9572;52.378;13.404;2022-07-23T06:39:49;15.70;99.90
18880;DHT22;9572;52.378;13.404;2022-07-23T06:42:16;15.70;99.90
18880;DHT22;9572;52.378;13.404;2022-07-23T06:44:43;15.70;99.90
18880;DHT22;9572;52.378;13.404;2022-07-23T06:47:09;15.80;99.90
18880;DHT22;9572;52.378;13.404;2022-07-23T06:49:38;15.90;99.90
18880;DHT22;9572;52.378;13.404;2022-07-23T06:52:06;16.00;99.90
18880;DHT22;9572;52.378;13.404;2022-07-23T06:54:33;16.10;99.90
18880;DHT22;9572;52.378;13.404;2022-07-23T06:57:00;16.20;99.90
18880;DHT22;9572;52.378;13.404;2022-07-23T06:59:28;16.40;99.90
18880;DHT22;9572;52.378;13.404;2022-07-23T07:01:55;16.40;99.90
18880;DHT22;9572;52.378;13.404;2022-07-23T07:04:23;16.40;99.90
18880;DHT22;9572;52.378;13.404;2022-07-23T07:06:51;16.50;99.90
18880;DHT22;9572;52.378;13.404;2022-07-23T07:09:18;16.30;99.90
18880;DHT22;9572;52.378;13.404;2022-07-23T07:11:45;16.30;99.90
18880;DHT22;9572;52.378;13.404;2022-07-23T07:14:12;16.30;99.90
18880;DHT22;9572;52.378;13.404;2022-07-23T07:16:39;16.40;99.90
18880;DHT22;9572;52.378;13.404;2022-07-23T07:19:06;16.40;99.90
18880;DHT22;9572;52.378;13.404;2022-07-23T07:21:33;16.50;99.90
18880;DHT22;9572;52.378;13.404;2022-07-23T07:24:01;16.60;99.90
18880;DHT22;9572;52.378;13.404;2022-07-23T07:26:28;16.60;99.90
18880;DHT22;9572;52.378;13.404;2022-07-23T07:28:56;16.70;99.90
18880;DHT22;9572;52.378;13.404;2022-07-23T07:31:23;16.60;99.90
18880;DHT22;9572;52.378;13.404;2022-07-23T07:33:50;16.80;99.90
18880;DHT22;9572;52.378;13.404;2022-07-23T07:36:17;16.80;99.90
18880;DHT22;9572;52.378;13.404;2022-07-23T07:38:44;17.00;99.90
18880;DHT22;9572;52.378;13.404;2022-07-23T07:41:13;17.00;99.90
18880;DHT22;9572;52.378;13.404;2022-07-23T07:43:40;17.10;99.90
18880;DHT22;9572;52.378;13.404;2022-07-23T07:46:07;17.10;99.90
18880;DHT22;9572;52.378;13.404;2022-07-23T07:48:35;17.20;99.90
18880;DHT22;9572;52.378;13.404;2022-07-23T07:51:03;17.20;99.90
18880;DHT22;9572;52.378;13.404;2022-07-23T07:53:30;17.10;99.90
18880;DHT22;9572;52.378;13.404;2022-07-23T07:55:57;17.10;99.90
18880;DHT22;9572;52.378;13.404;2022-07-23T07:58:27;17.20;99.90
18880;DHT22;9572;52.378;13.404;2022-07-23T08:00:55;17.10;99.90
18880;DHT22;9572;52.378;13.404;2022-07-23T08:03:22;17.30;99.90
18880;DHT22;9572;52.378;13.404;2022-07-23T08:05:49;17.50;99.90
18880;DHT22;9572;52.378;13.404;2022-07-23T08:08:15;17.50;99.90
18880;DHT22;9572;52.378;13.404;2022-07-23T08:10:42;17.60;99.90
18880;DHT22;9572;52.378;13.404;2022-07-23T08:13:13;17.70;99.90
18880;DHT22;9572;52.378;13.404;2022-07-23T08:15:43;17.90;99.90
18880;DHT22;9572;52.378;13.404;2022-07-23T08:18:10;18.00;99.90
18880;DHT22;9572;52.378;13.404;2022-07-23T08:20:37;18.20;99.90
18880;DHT22;9572;52.378;13.404;2022-07-23T08:23:05;18.40;99.90
18880;DHT22;9572;52.378;13.404;2022-07-23T08:25:34;18.60;99.90
18880;DHT22;9572;52.378;13.404;2022-07-23T08:28:03;18.80;99.90
18880;DHT22;9572;52.378;13.404;2022-07-23T08:30:31;19.30;99.90
18880;DHT22;9572;52.378;13.404;2022-07-23T08:33:02;19.60;99.90
18880;DHT22;9572;52.378;13.404;2022-07-23T08:35:31;19.80;99.90
18880;DHT22;9572;52.378;13.404;2022-07-23T08:38:00;19.80;99.90
18880;DHT22;9572;52.378;13.404;2022-07-23T08:40:29;19.70;99.90
18880;DHT22;9572;52.378;13.404;2022-07-23T08:42:56;19.30;99.90
18880;DHT22;9572;52.378;13.404;2022-07-23T08:45:25;19.40;99.90
18880;DHT22;9572;52.378;13.404;2022-07-23T08:47:55;19.60;99.90
18880;DHT22;9572;52.378;13.404;2022-07-23T08:50:24;19.90;99.90
18880;DHT22;9572;52.378;13.404;2022-07-23T08:52:52;20.10;99.90
18880;DHT22;9572;52.378;13.404;2022-07-23T08:55:21;20.00;99.90
18880;DHT22;9572;52.378;13.404;2022-07-23T08:57:49;20.10;99.90
18880;DHT22;9572;52.378;13.404;2022-07-23T09:00:18;20.30;99.90
18880;DHT22;9572;52.378;13.404;2022-07-23T09:02:46;20.10;99.90
18880;DHT22;9572;52.378;13.404;2022-07-23T09:05:14;20.10;99.90
18880;DHT22;9572;52.378;13.404;2022-07-23T09:08:07;20.20;99.90
18880;DHT22;9572;52.378;13.404;2022-07-23T09:10:48;20.70;99.90
18880;DHT22;9572;52.378;13.404;2022-07-23T09:13:35;21.10;99.90
18880;DHT22;9572;52.378;13.404;2022-07-23T09:16:06;21.00;99.90
18880;DHT22;9572;52.378;13.404;2022-07-23T09:18:36;21.00;99.90
18880;DHT22;9572;52.378;13.404;2022-07-23T09:21:16;21.00;99.90
18880;DHT22;9572;52.378;13.404;2022-07-23T09:23:47;20.90;99.90
18880;DHT22;9572;52.378;13.404;2022-07-23T09:26:23;20.70;99.90
18880;DHT22;9572;52.378;13.404;2022-07-23T09:28:55;20.70;99.90
18880;DHT22;9572;52.378;13.404;2022-07-23T09:31:23;20.70;99.90
18880;DHT22;9572;52.378;13.404;2022-07-23T09:33:51;20.70;99.90
18880;DHT22;9572;52.378;13.404;2022-07-23T09:36:28;20.70;99.90
18880;DHT22;9572;52.378;13.404;2022-07-23T09:38:56;20.80;99.90
18880;DHT22;9572;52.378;13.404;2022-07-23T09:41:23;21.00;99.90
18880;DHT22;9572;52.378;13.404;2022-07-23T09:43:56;21.20;99.90
18880;DHT22;9572;52.378;13.404;2022-07-23T09:46:25;21.30;99.90
18880;DHT22;9572;52.378;13.404;2022-07-23T09:48:54;21.50;99.90
18880;DHT22;9572;52.378;13.404;2022-07-23T09:51:22;21.60;99.90
18880;DHT22;9572;52.378;13.404;2022-07-23T09:53:53;21.80;99.90
18880;DHT22;9572;52.378;13.404;2022-07-23T09:56:22;22.20;99.90
18880;DHT22;9572;52.378;13.404;2022-07-23T09:58:50;22.40;99.90
18880;DHT22;9572;52.378;13.404;2022-07-23T10:01:27;22.50;99.90
18880;DHT22;9572;52.378;13.404;2022-07-23T10:03:54;22.20;99.90
18880;DHT22;9572;52.378;13.404;2022-07-23T10:06:22;22.10;99.90
18880;DHT22;9572;52.378;13.404;2022-07-23T10:08:50;22.10;99.90
18880;DHT22;9572;52.378;13.404;2022-07-23T10:11:17;22.10;99.90
18880;DHT22;9572;52.378;13.404;2022-07-23T10:13:46;22.10;99.90
18880;DHT22;9572;52.378;13.404;2022-07-23T10:16:20;22.00;99.90
18880;DHT22;9572;52.378;13.404;2022-07-23T10:18:48;22.20;99.90
18880;DHT22;9572;52.378;13.404;2022-07-23T10:21:20;22.20;99.90
18880;DHT22;9572;52.378;13.404;2022-07-23T10:24:01;22.30;99.90
18880;DHT22;9572;52.378;13.404;2022-07-23T10:26:35;22.40;99.90
18880;DHT22;9572;52.378;13.404;2022-07-23T10:29:13;22.60;99.90
18880;DHT22;9572;52.378;13.404;2022-07-23T10:31:52;23.30;99.90
18880;DHT22;9572;52.378;13.404;2022-07-23T10:34:25;23.80;99.90
18880;DHT22;9572;52.378;13.404;2022-07-23T10:36:59;24.00;99.90
18880;DHT22;9572;52.378;13.404;2022-07-23T10:39:30;24.10;99.90
18880;DHT22;9572;52.378;13.404;2022-07-23T10:42:08;24.20;99.90
18880;DHT22;9572;52.378;13.404;2022-07-23T10:44:41;24.30;99.90
18880;DHT22;9572;52.378;13.404;2022-07-23T10:47:09;24.80;99.90
18880;DHT22;9572;52.378;13.404;2022-07-23T10:49:44;24.90;99.90
18880;DHT22;9572;52.378;13.404;2022-07-23T10:52:25;24.70;99.90
18880;DHT22;9572;52.378;13.404;2022-07-23T10:54:53;24.40;99.90
18880;DHT22;9572;52.378;13.404;2022-07-23T10:57:21;24.20;99.90
18880;DHT22;9572;52.378;13.404;2022-07-23T11:02:59;23.50;99.90
18880;DHT22;9572;52.378;13.404;2022-07-23T11:05:39;23.20;99.90
18880;DHT22;9572;52.378;13.404;2022-07-23T11:08:12;23.20;99.90
18880;DHT22;9572;52.378;13.404;2022-07-23T11:10:43;23.40;99.90
18880;DHT22;9572;52.378;13.404;2022-07-23T11:13:31;23.80;99.90
18880;DHT22;9572;52.378;13.404;2022-07-23T11:16:20;24.10;99.90
18880;DHT22;9572;52.378;13.404;2022-07-23T11:19:05;24.60;99.90
18880;DHT22;9572;52.378;13.404;2022-07-23T11:21:46;24.80;99.90
18880;DHT22;9572;52.378;13.404;2022-07-23T11:24:18;25.00;99.90
18880;DHT22;9572;52.378;13.404;2022-07-23T11:26:49;25.20;99.90
18880;DHT22;9572;52.378;13.404;2022-07-23T11:29:38;25.50;99.90
18880;DHT22;9572;52.378;13.404;2022-07-23T11:32:07;25.40;99.90
18880;DHT22;9572;52.378;13.404;2022-07-23T11:34:39;25.20;99.90
18880;DHT22;9572;52.378;13.404;2022-07-23T11:37:08;25.10;99.90
18880;DHT22;9572;52.378;13.404;2022-07-23T11:39:35;24.80;99.90
18880;DHT22;9572;52.378;13.404;2022-07-23T11:42:05;24.50;99.90
18880;DHT22;9572;52.378;13.404;2022-07-23T11:44:33;24.30;99.90
18880;DHT22;9572;52.378;13.404;2022-07-23T11:47:03;24.50;99.90
18880;DHT22;9572;52.378;13.404;2022-07-23T11:49:30;24.80;99.90
18880;DHT22;9572;52.378;13.404;2022-07-23T11:52:06;25.00;99.90
18880;DHT22;9572;52.378;13.404;2022-07-23T11:54:34;25.30;99.90
18880;DHT22;9572;52.378;13.404;2022-07-23T11:57:02;25.60;99.90
18880;DHT22;9572;52.378;13.404;2022-07-23T11:59:32;25.50;99.90
18880;DHT22;9572;52.378;13.404;2022-07-23T12:02:00;25.40;99.90
18880;DHT22;9572;52.378;13.404;2022-07-23T12:04:37;25.40;99.90
18880;DHT22;9572;52.378;13.404;2022-07-23T12:07:25;25.70;99.90
18880;DHT22;9572;52.378;13.404;2022-07-23T12:09:53;25.90;99.90
18880;DHT22;9572;52.378;13.404;2022-07-23T12:12:20;25.90;99.90
18880;DHT22;9572;52.378;13.404;2022-07-23T12:14:49;25.90;99.90
18880;DHT22;9572;52.378;13.404;2022-07-23T12:17:16;25.90;99.90
18880;DHT22;9572;52.378;13.404;2022-07-23T12:19:43;25.80;99.90
18880;DHT22;9572;52.378;13.404;2022-07-23T12:22:12;25.70;99.90
18880;DHT22;9572;52.378;13.404;2022-07-23T12:24:56;25.70;99.90
18880;DHT22;9572;52.378;13.404;2022-07-23T12:27:24;25.60;99.90
18880;DHT22;9572;52.378;13.404;2022-07-23T12:29:52;25.50;99.90
18880;DHT22;9572;52.378;13.404;2022-07-23T12:32:22;25.20;99.90
18880;DHT22;9572;52.378;13.404;2022-07-23T12:35:02;25.10;99.90
18880;DHT22;9572;52.378;13.404;2022-07-23T12:37:33;25.10;99.90
18880;DHT22;9572;52.378;13.404;2022-07-23T12:40:22;25.00;99.90
18880;DHT22;9572;52.378;13.404;2022-07-23T12:42:53;25.20;99.90
18880;DHT22;9572;52.378;13.404;2022-07-23T12:45:20;25.30;99.90
18880;DHT22;9572;52.378;13.404;2022-07-23T12:48:00;25.20;99.90
18880;DHT22;9572;52.378;13.404;2022-07-23T12:50:51;25.10;99.90
18880;DHT22;9572;52.378;13.404;2022-07-23T12:53:22;25.00;99.90
18880;DHT22;9572;52.378;13.404;2022-07-23T12:55:56;25.10;99.90
18880;DHT22;9572;52.378;13.404;2022-07-23T12:58:24;25.20;99.90
18880;DHT22;9572;52.378;13.404;2022-07-23T13:01:02;25.10;99.90
18880;DHT22;9572;52.378;13.404;2022-07-23T13:03:33;25.00;99.90
18880;DHT22;9572;52.378;13.404;2022-07-23T13:06:02;24.80;99.90
18880;DHT22;9572;52.378;13.404;2022-07-23T13:08:32;24.70;99.90
18880;DHT22;9572;52.378;13.404;2022-07-23T13:10:59;24.80;99.90
18880;DHT22;9572;52.378;13.404;2022-07-23T13:13:29;25.10;99.90
18880;DHT22;9572;52.378;13.404;2022-07-23T13:15:57;25.40;99.90
18880;DHT22;9572;52.378;13.404;2022-07-23T13:18:26;25.60;99.90
18880;DHT22;9572;52.378;13.404;2022-07-23T13:20:53;25.50;99.90
18880;DHT22;9572;52.378;13.404;2022-07-23T13:23:21;25.20;99.90
18880;DHT22;9572;52.378;13.404;2022-07-23T13:25:50;25.00;99.90
18880;DHT22;9572;52.378;13.404;2022-07-23T13:28:18;25.10;99.90
18880;DHT22;9572;52.378;13.404;2022-07-23T13:30:46;25.00;99.90
18880;DHT22;9572;52.378;13.404;2022-07-23T13:33:15;25.00;99.90
18880;DHT22;9572;52.378;13.404;2022-07-23T13:35:42;25.20;99.90
18880;DHT22;9572;52.378;13.404;2022-07-23T13:38:10;25.40;99.90
18880;DHT22;9572;52.378;13.404;2022-07-23T13:40:38;25.60;99.90
18880;DHT22;9572;52.378;13.404;2022-07-23T13:43:07;25.60;99.90
18880;DHT22;9572;52.378;13.404;2022-07-23T13:45:34;25.50;99.90
18880;DHT22;9572;52.378;13.404;2022-07-23T13:48:02;25.40;99.90
18880;DHT22;9572;52.378;13.404;2022-07-23T13:50:29;25.40;99.90
18880;DHT22;9572;52.378;13.404;2022-07-23T13:52:56;25.40;99.90
18880;DHT22;9572;52.378;13.404;2022-07-23T13:55:23;25.40;99.90
18880;DHT22;9572;52.378;13.404;2022-07-23T13:57:49;25.10;99.90
18880;DHT22;9572;52.378;13.404;2022-07-23T14:00:18;24.80;99.90
18880;DHT22;9572;52.378;13.404;2022-07-23T14:02:45;24.70;99.90
18880;DHT22;9572;52.378;13.404;2022-07-23T14:05:12;24.60;99.90
18880;DHT22;9572;52.378;13.404;2022-07-23T14:07:39;24.60;99.90
18880;DHT22;9572;52.378;13.404;2022-07-23T14:10:08;24.60;99.90
18880;DHT22;9572;52.378;13.404;2022-07-23T14:12:35;24.70;99.90
18880;DHT22;9572;52.378;13.404;2022-07-23T14:15:03;24.70;99.90
18880;DHT22;9572;52.378;13.404;2022-07-23T14:17:31;24.60;99.90
18880;DHT22;9572;52.378;13.404;2022-07-23T14:19:58;24.60;99.90
18880;DHT22;9572;52.378;13.404;2022-07-23T14:22:25;24.70;99.90
18880;DHT22;9572;52.378;13.404;2022-07-23T14:24:52;24.90;99.90
18880;DHT22;9572;52.378;13.404;2022-07-23T14:27:19;25.10;99.90
18880;DHT22;9572;52.378;13.404;2022-07-23T14:29:47;25.20;99.90
18880;DHT22;9572;52.378;13.404;2022-07-23T14:32:13;25.30;99.90
18880;DHT22;9572;52.378;13.404;2022-07-23T14:34:42;25.20;99.90
18880;DHT22;9572;52.378;13.404;2022-07-23T14:37:09;25.10;99.90
18880;DHT22;9572;52.378;13.404;2022-07-23T14:39:37;25.10;99.90
18880;DHT22;9572;52.378;13.404;2022-07-23T14:42:04;25.20;99.90
18880;DHT22;9572;52.378;13.404;2022-07-23T14:44:31;25.50;99.90
18880;DHT22;9572;52.378;13.404;2022-07-23T14:46:58;25.80;99.90
18880;DHT22;9572;52.378;13.404;2022-07-23T14:49:26;26.00;99.90
18880;DHT22;9572;52.378;13.404;2022-07-23T14:51:54;25.90;99.90
18880;DHT22;9572;52.378;13.404;2022-07-23T14:54:21;25.70;99.90
18880;DHT22;9572;52.378;13.404;2022-07-23T14:56:49;25.40;99.90
18880;DHT22;9572;52.378;13.404;2022-07-23T14:59:16;25.20;99.90
18880;DHT22;9572;52.378;13.404;2022-07-23T15:01:42;25.00;99.90
18880;DHT22;9572;52.378;13.404;2022-07-23T15:04:09;25.00;99.90
18880;DHT22;9572;52.378;13.404;2022-07-23T15:06:36;24.70;99.90
18880;DHT22;9572;52.378;13.404;2022-07-23T15:09:06;24.50;99.90
18880;DHT22;9572;52.378;13.404;2022-07-23T15:11:33;24.50;99.90
18880;DHT22;9572;52.378;13.404;2022-07-23T15:14:02;24.50;99.90
18880;DHT22;9572;52.378;13.404;2022-07-23T15:16:29;24.40;99.90
18880;DHT22;9572;52.378;13.404;2022-07-23T15:18:56;24.40;99.90
18880;DHT22;9572;52.378;13.404;2022-07-23T15:21:23;24.40;99.90
18880;DHT22;9572;52.378;13.404;2022-07-23T15:23:50;24.50;99.90
18880;DHT22;9572;52.378;13.404;2022-07-23T15:26:20;24.40;99.90
18880;DHT22;9572;52.378;13.404;2022-07-23T15:28:48;24.40;99.90
18880;DHT22;9572;52.378;13.404;2022-07-23T15:31:15;24.40;99.90
18880;DHT22;9572;52.378;13.404;2022-07-23T15:33:42;24.30;99.90
18880;DHT22;9572;52.378;13.404;2022-07-23T15:36:09;24.40;99.90
18880;DHT22;9572;52.378;13.404;2022-07-23T15:38:36;24.50;99.90
18880;DHT22;9572;52.378;13.404;2022-07-23T15:41:03;24.60;99.90
18880;DHT22;9572;52.378;13.404;2022-07-23T15:43:31;24.60;99.90